Startpagina
METAR-TAF:

METAR-TAF

Vliegvelden :

Olsztyn-Mazury

Olsztyn, Polen

breedte: 53-28-55N, lengte: 20-56-16E, hoogte: 141 m

Actueel weer

Dit bericht is 40 minuten geleden gemaakt, om 15:30 UTC
Wind 2 kt uit variabele richting
Temperatuur 24°C
Vochtigheid 65%
Druk 1013 hPa
Zicht 10 km of meer
geen wolken onder 1500 m en geen cumulonimbus

METAR: EPSY 261530Z VRB02KT CAVOK 24/17 Q1013

Tijdstip: 18:10 (16:10 UTC)

Verwachting

Dit bericht is 1 uur en het 40 minuten geleden gemaakt, om 14:30 UTC
Verwachting geldig van 26 om 15 UTC tot 26 om 24 UTC
Wind 5 kt uit het zuidoosten
Zicht 10 km of meer
geen wolken onder 1500 m en geen cumulonimbus
Kans 30% :
Tijdelijke
van 26 om 15 UTC tot 26 om 21 UTC
Wind 15 kt uit variabele richting met uitschieters tot 30 kt
Zicht: 3000 m
Gebroken wolken op 3000 ft, Cumulonimbus.
onweer, regen

TAF: EPSY 261430Z 2615/2624 13005KT CAVOK PROB30 TEMPO 2615/2621 VRB15G30KT 3000 TSRA BKN030CB

Waarnemingen en weersverwachtingen van meer dan 4000 vliegvelden (METAR en TAF).

De beschikbare stations zijn de gele en rode punten op de kaart.

Ga met uw muis naar het station om de naam te zien.

Klik dan om waarnemingen en weersverwachtingen te zien.

kaart wijzigen: klik op de groene knoppen met een zwart kruis om in te zoomen, op de groene knop met een streepje om uit te zoomen of op de groene pijlen voor aangrenzende kaarten.


METAR-TAF: